Stafford, VA

11:40 AM EDT on October 02, 2014 (GMT -0400)
Park Ridge/Woods (The Wireman's) | Change Station
CLOSE
Current Station
Personal Weather Station
Location: Stafford, VA
Elevation: 249 ft
Nearby Weather Stations

Elev 249 ft 38.46 °N, 77.45 °W | Updated 2 seconds ago

Overcast
Overcast
67.5 °F
Feels Like 67.5 °F
N
0.0
Wind Variable Wind from WSW
Gusts 2.0 mph

Today
High -- | Low -- °F
--% Chance of Precip.
Yesterday
High -- | Low -- °F
Precip. -- in
7:06 AM 6:51 PM
First Quarter, 60% visible
Pressure 30.17 in
Visibility 10.0 miles
Clouds Overcast 1200 ft
Dew Point 64 °F
Humidity 88%
Rainfall 0.00 in
Snow Depth Not available.
UV 2 out of 12
Pollen 3.60 out of 12
Air Quality Not available.
Flu Activity Not available.
METAR KRMN 021535Z AUTO 00000KT 10SM OVC012 21/20 A3017 RMK AO2 T02090195

More Conditions Fewer Conditions

Pressure 30.17 in
Visibility 10.0 miles
Clouds Overcast 1200 ft
Dew Point 64 °F
Humidity 88%
Rainfall 0.00 in
Snow Depth Not available.
UV 2 out of 12
Pollen 3.60 out of 12
Air Quality Not available.
Flu Activity Not available.
METAR KRMN 021535Z AUTO 00000KT 10SM OVC012 21/20 A3017 RMK AO2 T02090195

More Conditions Fewer Conditions

10-Day Weather Forecast

Almanac

Astronomy

Oct. 02, 2014 Rise Set
Actual Time 7:06 AM EDT 6:51 PM EDT
Civil Twilight 6:40 AM EDT 7:17 PM EDT
Nautical Twilight 6:09 AM EDT 7:48 PM EDT
Astronomical Twilight 5:38 AM EDT 8:18 PM EDT
Moon 2:51 PM EDT 12:25 AM EDT
Length of Visible Light 12h 37m
Length of Day
11h 44m
Tomorrow will be 2m 28s shorter.
First Quarter, 60% of the Moon is Illuminated
Today
First Quarter
Oct 8
Full
Oct 15
Last Quarter
Oct 23
New
Oct 30
First Quarter

Today's Extremes

State Highs State Lows

Community

WunderPhotos

Upload Photos

1,758,276 photos uploaded!

WunderBlogs® & News

Nearby

Snow Depth

Station Depth Elevation
No new snow has been reported.

Earthquake Activity

City Distance Mag. Time & Date
No recent earthquake activity has been reported nearby.
Minimum magnitude displayed is 2.5.

Coastal Water Temperatures

Place Temperature
Washington, DC 71.1 °F
Lewisetta, VA 72.0 °F
Solomons Island, MD 73.0 °F

Nearby Weather Stations